sensor_id;sensor_type;location;lat;lon;timestamp;pressure;altitude;pressure_sealevel;temperature;humidity
44734;BME280;30462;52.446;-1.930;2023-05-09T00:00:19;99952.76563;;;;
44734;BME280;30462;52.446;-1.930;2023-05-09T00:01:17;99946.11719;;;;
44734;BME280;30462;52.446;-1.930;2023-05-09T00:02:18;99945.86719;;;;
44734;BME280;30462;52.446;-1.930;2023-05-09T00:03:18;99943.32031;;;;
44734;BME280;30462;52.446;-1.930;2023-05-09T00:04:18;99941.66797;;;;
44734;BME280;30462;52.446;-1.930;2023-05-09T00:05:18;99939.31641;;;;
44734;BME280;30462;52.446;-1.930;2023-05-09T00:06:17;99941.22656;;;;
44734;BME280;30462;52.446;-1.930;2023-05-09T00:07:18;99934.86328;;;;
44734;BME280;30462;52.446;-1.930;2023-05-09T00:08:18;99935.625;;;;
44734;BME280;30462;52.446;-1.930;2023-05-09T00:09:18;99938.58984;;;;
44734;BME280;30462;52.446;-1.930;2023-05-09T00:10:18;99937.42969;;;;
44734;BME280;30462;52.446;-1.930;2023-05-09T00:11:18;99937.26953;;;;
44734;BME280;30462;52.446;-1.930;2023-05-09T00:12:18;99937.44141;;;;
44734;BME280;30462;52.446;-1.930;2023-05-09T00:13:17;99940.73047;;;;
44734;BME280;30462;52.446;-1.930;2023-05-09T00:14:18;99936.66016;;;;
44734;BME280;30462;52.446;-1.930;2023-05-09T00:15:18;99938.37891;;;;
44734;BME280;30462;52.446;-1.930;2023-05-09T00:16:18;99936.55859;;;;
44734;BME280;30462;52.446;-1.930;2023-05-09T00:17:18;99937.04688;;;;
44734;BME280;30462;52.446;-1.930;2023-05-09T00:18:17;99936.23438;;;;
44734;BME280;30462;52.446;-1.930;2023-05-09T00:19:18;99935.02734;;;;
44734;BME280;30462;52.446;-1.930;2023-05-09T00:20:18;99935.03906;;;;
44734;BME280;30462;52.446;-1.930;2023-05-09T00:21:18;99935.09766;;;;
44734;BME280;30462;52.446;-1.930;2023-05-09T00:22:18;99935.47656;;;;
44734;BME280;30462;52.446;-1.930;2023-05-09T00:23:17;99929.95313;;;;
44734;BME280;30462;52.446;-1.930;2023-05-09T00:24:18;99928.31641;;;;
44734;BME280;30462;52.446;-1.930;2023-05-09T00:25:18;99925.30469;;;;
44734;BME280;30462;52.446;-1.930;2023-05-09T00:26:18;99927.11719;;;;
44734;BME280;30462;52.446;-1.930;2023-05-09T00:27:18;99920.83594;;;;
44734;BME280;30462;52.446;-1.930;2023-05-09T00:28:17;99921.78516;;;;
44734;BME280;30462;52.446;-1.930;2023-05-09T00:29:18;99923.46875;;;;
44734;BME280;30462;52.446;-1.930;2023-05-09T00:30:18;99917.26953;;;;
44734;BME280;30462;52.446;-1.930;2023-05-09T00:31:18;99919.02344;;;;
44734;BME280;30462;52.446;-1.930;2023-05-09T00:32:18;99915.51563;;;;
44734;BME280;30462;52.446;-1.930;2023-05-09T00:33:18;99917.5;;;;
44734;BME280;30462;52.446;-1.930;2023-05-09T00:34:18;99914.63281;;;;
44734;BME280;30462;52.446;-1.930;2023-05-09T00:35:18;99916.53906;;;;
44734;BME280;30462;52.446;-1.930;2023-05-09T00:36:17;99915.78125;;;;
44734;BME280;30462;52.446;-1.930;2023-05-09T00:37:17;99914.33594;;;;
44734;BME280;30462;52.446;-1.930;2023-05-09T00:38:18;99914.41797;;;;
44734;BME280;30462;52.446;-1.930;2023-05-09T00:39:17;99917.33203;;;;
44734;BME280;30462;52.446;-1.930;2023-05-09T00:40:18;99912.30078;;;;
44734;BME280;30462;52.446;-1.930;2023-05-09T00:41:18;99908.57031;;;;
44734;BME280;30462;52.446;-1.930;2023-05-09T00:42:18;99911.12891;;;;
44734;BME280;30462;52.446;-1.930;2023-05-09T00:43:19;99910.01563;;;;
44734;BME280;30462;52.446;-1.930;2023-05-09T00:44:18;99905.89063;;;;
44734;BME280;30462;52.446;-1.930;2023-05-09T00:45:18;99902.76563;;;;
44734;BME280;30462;52.446;-1.930;2023-05-09T00:46:18;99904.89453;;;;
44734;BME280;30462;52.446;-1.930;2023-05-09T00:47:17;99902.82031;;;;
44734;BME280;30462;52.446;-1.930;2023-05-09T00:48:18;99902.79297;;;;
44734;BME280;30462;52.446;-1.930;2023-05-09T00:49:18;99902.53516;;;;
44734;BME280;30462;52.446;-1.930;2023-05-09T00:50:18;99903.72656;;;;
44734;BME280;30462;52.446;-1.930;2023-05-09T00:51:18;99905.21094;;;;
44734;BME280;30462;52.446;-1.930;2023-05-09T00:52:17;99900.04688;;;;
44734;BME280;30462;52.446;-1.930;2023-05-09T00:53:17;99899.99609;;;;
44734;BME280;30462;52.446;-1.930;2023-05-09T00:54:17;99900.4375;;;;
44734;BME280;30462;52.446;-1.930;2023-05-09T00:55:18;99900.5;;;;
44734;BME280;30462;52.446;-1.930;2023-05-09T00:56:18;99898.28125;;;;
44734;BME280;30462;52.446;-1.930;2023-05-09T00:57:18;99897.92188;;;;
44734;BME280;30462;52.446;-1.930;2023-05-09T00:58:18;99895.75781;;;;
44734;BME280;30462;52.446;-1.930;2023-05-09T00:59:17;99894.22266;;;;
44734;BME280;30462;52.446;-1.930;2023-05-09T01:00:18;99890.44141;;;;
44734;BME280;30462;52.446;-1.930;2023-05-09T01:01:18;99892.70703;;;;
44734;BME280;30462;52.446;-1.930;2023-05-09T01:02:17;99889.91406;;;;
44734;BME280;30462;52.446;-1.930;2023-05-09T01:03:17;99892.46875;;;;
44734;BME280;30462;52.446;-1.930;2023-05-09T01:04:18;99887.93359;;;;
44734;BME280;30462;52.446;-1.930;2023-05-09T01:05:18;99885.26953;;;;
44734;BME280;30462;52.446;-1.930;2023-05-09T01:06:21;99882.49219;;;;
44734;BME280;30462;52.446;-1.930;2023-05-09T01:07:21;99882.21875;;;;
44734;BME280;30462;52.446;-1.930;2023-05-09T01:08:20;99883.15625;;;;
44734;BME280;30462;52.446;-1.930;2023-05-09T01:09:23;99881.54688;;;;
44734;BME280;30462;52.446;-1.930;2023-05-09T01:10:20;99879.01953;;;;
44734;BME280;30462;52.446;-1.930;2023-05-09T01:11:19;99877.39063;;;;
44734;BME280;30462;52.446;-1.930;2023-05-09T01:12:23;99880.07031;;;;
44734;BME280;30462;52.446;-1.930;2023-05-09T01:13:20;99880.64453;;;;
44734;BME280;30462;52.446;-1.930;2023-05-09T01:14:21;99879.96875;;;;
44734;BME280;30462;52.446;-1.930;2023-05-09T01:15:20;99881.24219;;;;
44734;BME280;30462;52.446;-1.930;2023-05-09T01:16:25;99876.83984;;;;
44734;BME280;30462;52.446;-1.930;2023-05-09T01:17:30;99876.43359;;;;
44734;BME280;30462;52.446;-1.930;2023-05-09T01:18:20;99874.63281;;;;
44734;BME280;30462;52.446;-1.930;2023-05-09T01:20:19;99874.84375;;;;
44734;BME280;30462;52.446;-1.930;2023-05-09T01:21:19;99873.68359;;;;
44734;BME280;30462;52.446;-1.930;2023-05-09T01:22:18;99872.66406;;;;
44734;BME280;30462;52.446;-1.930;2023-05-09T01:25:20;99875.6875;;;;
44734;BME280;30462;52.446;-1.930;2023-05-09T01:26:18;99871.16016;;;;
44734;BME280;30462;52.446;-1.930;2023-05-09T01:27:20;99871.32813;;;;
44734;BME280;30462;52.446;-1.930;2023-05-09T01:28:23;99869.61719;;;;
44734;BME280;30462;52.446;-1.930;2023-05-09T01:29:22;99871.38672;;;;
44734;BME280;30462;52.446;-1.930;2023-05-09T01:30:18;99869.02344;;;;
44734;BME280;30462;52.446;-1.930;2023-05-09T01:31:17;99868.69922;;;;
44734;BME280;30462;52.446;-1.930;2023-05-09T01:32:18;99868.85156;;;;
44734;BME280;30462;52.446;-1.930;2023-05-09T01:33:18;99864.74609;;;;
44734;BME280;30462;52.446;-1.930;2023-05-09T01:34:18;99867.25391;;;;
44734;BME280;30462;52.446;-1.930;2023-05-09T01:35:17;99862.62891;;;;
44734;BME280;30462;52.446;-1.930;2023-05-09T01:36:17;99862.46094;;;;
44734;BME280;30462;52.446;-1.930;2023-05-09T01:37:18;99863.46094;;;;
44734;BME280;30462;52.446;-1.930;2023-05-09T01:38:18;99860.39063;;;;
44734;BME280;30462;52.446;-1.930;2023-05-09T01:39:18;99858.25391;;;;
44734;BME280;30462;52.446;-1.930;2023-05-09T01:40:18;99860.38281;;;;
44734;BME280;30462;52.446;-1.930;2023-05-09T01:41:18;99860.31641;;;;
44734;BME280;30462;52.446;-1.930;2023-05-09T01:42:18;99856.19141;;;;
44734;BME280;30462;52.446;-1.930;2023-05-09T01:43:18;99855.04297;;;;
44734;BME280;30462;52.446;-1.930;2023-05-09T01:44:18;99855.09766;;;;
44734;BME280;30462;52.446;-1.930;2023-05-09T01:45:18;99855.10938;;;;
44734;BME280;30462;52.446;-1.930;2023-05-09T01:46:18;99856.92188;;;;
44734;BME280;30462;52.446;-1.930;2023-05-09T01:47:18;99853.08984;;;;
44734;BME280;30462;52.446;-1.930;2023-05-09T01:48:17;99857.32422;;;;
44734;BME280;30462;52.446;-1.930;2023-05-09T01:49:17;99858.5625;;;;
44734;BME280;30462;52.446;-1.930;2023-05-09T01:50:18;99859.56641;;;;
44734;BME280;30462;52.446;-1.930;2023-05-09T01:51:18;99864.02344;;;;
44734;BME280;30462;52.446;-1.930;2023-05-09T01:52:18;99862.85547;;;;
44734;BME280;30462;52.446;-1.930;2023-05-09T01:53:18;99861.26563;;;;
44734;BME280;30462;52.446;-1.930;2023-05-09T01:54:18;99863.12891;;;;
44734;BME280;30462;52.446;-1.930;2023-05-09T01:55:18;99861.07031;;;;
44734;BME280;30462;52.446;-1.930;2023-05-09T01:56:17;99861.70313;;;;
44734;BME280;30462;52.446;-1.930;2023-05-09T01:57:18;99859.15234;;;;
44734;BME280;30462;52.446;-1.930;2023-05-09T01:58:18;99855.85156;;;;
44734;BME280;30462;52.446;-1.930;2023-05-09T01:59:18;99854.26953;;;;
44734;BME280;30462;52.446;-1.930;2023-05-09T02:00:17;99852.20703;;;;
44734;BME280;30462;52.446;-1.930;2023-05-09T02:01:18;99849.07813;;;;
44734;BME280;30462;52.446;-1.930;2023-05-09T02:02:18;99847.71484;;;;
44734;BME280;30462;52.446;-1.930;2023-05-09T02:03:18;99844.04688;;;;
44734;BME280;30462;52.446;-1.930;2023-05-09T02:04:18;99846.39844;;;;
44734;BME280;30462;52.446;-1.930;2023-05-09T02:05:18;99843.25391;;;;
44734;BME280;30462;52.446;-1.930;2023-05-09T02:06:19;99840.42578;;;;
44734;BME280;30462;52.446;-1.930;2023-05-09T02:07:18;99839.65625;;;;
44734;BME280;30462;52.446;-1.930;2023-05-09T02:08:18;99834.42188;;;;
44734;BME280;30462;52.446;-1.930;2023-05-09T02:09:18;99836.05859;;;;
44734;BME280;30462;52.446;-1.930;2023-05-09T02:10:18;99836.13672;;;;
44734;BME280;30462;52.446;-1.930;2023-05-09T02:11:18;99835.62109;;;;
44734;BME280;30462;52.446;-1.930;2023-05-09T02:12:18;99836.94531;;;;
44734;BME280;30462;52.446;-1.930;2023-05-09T02:13:18;99835.90625;;;;
44734;BME280;30462;52.446;-1.930;2023-05-09T02:14:18;99831.40234;;;;
44734;BME280;30462;52.446;-1.930;2023-05-09T02:15:18;99830.86328;;;;
44734;BME280;30462;52.446;-1.930;2023-05-09T02:16:18;99834.51563;;;;
44734;BME280;30462;52.446;-1.930;2023-05-09T02:17:17;99831.05078;;;;
44734;BME280;30462;52.446;-1.930;2023-05-09T02:18:18;99833.75;;;;
44734;BME280;30462;52.446;-1.930;2023-05-09T02:19:18;99837.35938;;;;
44734;BME280;30462;52.446;-1.930;2023-05-09T02:20:18;99840.11328;;;;
44734;BME280;30462;52.446;-1.930;2023-05-09T02:21:18;99838.84766;;;;
44734;BME280;30462;52.446;-1.930;2023-05-09T02:22:18;99838.69141;;;;
44734;BME280;30462;52.446;-1.930;2023-05-09T02:23:18;99840.54297;;;;
44734;BME280;30462;52.446;-1.930;2023-05-09T02:24:19;99836.93359;;;;
44734;BME280;30462;52.446;-1.930;2023-05-09T02:25:18;99837.36719;;;;
44734;BME280;30462;52.446;-1.930;2023-05-09T02:26:18;99834.62891;;;;
44734;BME280;30462;52.446;-1.930;2023-05-09T02:27:18;99834.78516;;;;
44734;BME280;30462;52.446;-1.930;2023-05-09T02:28:18;99829.48047;;;;
44734;BME280;30462;52.446;-1.930;2023-05-09T02:29:18;99829.89844;;;;
44734;BME280;30462;52.446;-1.930;2023-05-09T02:30:19;99830.51953;;;;
44734;BME280;30462;52.446;-1.930;2023-05-09T02:31:19;99828.41797;;;;
44734;BME280;30462;52.446;-1.930;2023-05-09T02:32:20;99831.38672;;;;
44734;BME280;30462;52.446;-1.930;2023-05-09T02:33:18;99830.39063;;;;
44734;BME280;30462;52.446;-1.930;2023-05-09T02:34:18;99827.85938;;;;
44734;BME280;30462;52.446;-1.930;2023-05-09T02:35:18;99827.47656;;;;
44734;BME280;30462;52.446;-1.930;2023-05-09T02:36:18;99828.35547;;;;
44734;BME280;30462;52.446;-1.930;2023-05-09T02:37:18;99825.29688;;;;
44734;BME280;30462;52.446;-1.930;2023-05-09T02:38:18;99823.74219;;;;
44734;BME280;30462;52.446;-1.930;2023-05-09T02:39:18;99821.11719;;;;
44734;BME280;30462;52.446;-1.930;2023-05-09T02:40:18;99822.77344;;;;
44734;BME280;30462;52.446;-1.930;2023-05-09T02:41:17;99820.76953;;;;
44734;BME280;30462;52.446;-1.930;2023-05-09T02:42:20;99818.73047;;;;
44734;BME280;30462;52.446;-1.930;2023-05-09T02:43:18;99817.90234;;;;
44734;BME280;30462;52.446;-1.930;2023-05-09T02:44:18;99817.48438;;;;
44734;BME280;30462;52.446;-1.930;2023-05-09T02:45:18;99819.26563;;;;
44734;BME280;30462;52.446;-1.930;2023-05-09T02:46:18;99818.40234;;;;
44734;BME280;30462;52.446;-1.930;2023-05-09T02:47:17;99820.87109;;;;
44734;BME280;30462;52.446;-1.930;2023-05-09T02:48:18;99820.64453;;;;
44734;BME280;30462;52.446;-1.930;2023-05-09T02:49:17;99825.68359;;;;
44734;BME280;30462;52.446;-1.930;2023-05-09T02:50:18;99824.72266;;;;
44734;BME280;30462;52.446;-1.930;2023-05-09T02:51:18;99827.44922;;;;
44734;BME280;30462;52.446;-1.930;2023-05-09T02:52:18;99828.1875;;;;
44734;BME280;30462;52.446;-1.930;2023-05-09T02:53:18;99829.05078;;;;
44734;BME280;30462;52.446;-1.930;2023-05-09T02:54:18;99829.33203;;;;
44734;BME280;30462;52.446;-1.930;2023-05-09T02:55:17;99827.80078;;;;
44734;BME280;30462;52.446;-1.930;2023-05-09T02:56:18;99825.51172;;;;
44734;BME280;30462;52.446;-1.930;2023-05-09T02:57:18;99826.00391;;;;
44734;BME280;30462;52.446;-1.930;2023-05-09T02:58:18;99822.64844;;;;
44734;BME280;30462;52.446;-1.930;2023-05-09T02:59:18;99823.03906;;;;
44734;BME280;30462;52.446;-1.930;2023-05-09T03:00:18;99820.85938;;;;
44734;BME280;30462;52.446;-1.930;2023-05-09T03:01:18;99822.73438;;;;
44734;BME280;30462;52.446;-1.930;2023-05-09T03:02:18;99821.82813;;;;
44734;BME280;30462;52.446;-1.930;2023-05-09T03:03:18;99822.57031;;;;
44734;BME280;30462;52.446;-1.930;2023-05-09T03:04:18;99821.62109;;;;
44734;BME280;30462;52.446;-1.930;2023-05-09T03:05:17;99823.17578;;;;
44734;BME280;30462;52.446;-1.930;2023-05-09T03:06:17;99818.17578;;;;
44734;BME280;30462;52.446;-1.930;2023-05-09T03:07:18;99816.17188;;;;
44734;BME280;30462;52.446;-1.930;2023-05-09T03:08:18;99813.86719;;;;
44734;BME280;30462;52.446;-1.930;2023-05-09T03:09:18;99812.73438;;;;
44734;BME280;30462;52.446;-1.930;2023-05-09T03:10:17;99813.11328;;;;
44734;BME280;30462;52.446;-1.930;2023-05-09T03:11:17;99812.03125;;;;
44734;BME280;30462;52.446;-1.930;2023-05-09T03:12:19;99811.95703;;;;
44734;BME280;30462;52.446;-1.930;2023-05-09T03:13:18;99810.30469;;;;
44734;BME280;30462;52.446;-1.930;2023-05-09T03:14:17;99810.60547;;;;
44734;BME280;30462;52.446;-1.930;2023-05-09T03:15:18;99808.33203;;;;
44734;BME280;30462;52.446;-1.930;2023-05-09T03:16:18;99810.52734;;;;
44734;BME280;30462;52.446;-1.930;2023-05-09T03:17:17;99807.73047;;;;
44734;BME280;30462;52.446;-1.930;2023-05-09T03:18:18;99807.36328;;;;
44734;BME280;30462;52.446;-1.930;2023-05-09T03:19:18;99809.64844;;;;
44734;BME280;30462;52.446;-1.930;2023-05-09T03:20:18;99805.36719;;;;
44734;BME280;30462;52.446;-1.930;2023-05-09T03:21:18;99804.04297;;;;
44734;BME280;30462;52.446;-1.930;2023-05-09T03:22:18;99804.82813;;;;
44734;BME280;30462;52.446;-1.930;2023-05-09T03:23:17;99801.90234;;;;
44734;BME280;30462;52.446;-1.930;2023-05-09T03:24:18;99805.08203;;;;
44734;BME280;30462;52.446;-1.930;2023-05-09T03:25:18;99804.54297;;;;
44734;BME280;30462;52.446;-1.930;2023-05-09T03:26:18;99806.64063;;;;
44734;BME280;30462;52.446;-1.930;2023-05-09T03:27:18;99804.20703;;;;
44734;BME280;30462;52.446;-1.930;2023-05-09T03:28:18;99803.38672;;;;
44734;BME280;30462;52.446;-1.930;2023-05-09T03:29:17;99800.58203;;;;
44734;BME280;30462;52.446;-1.930;2023-05-09T03:30:18;99798.21484;;;;
44734;BME280;30462;52.446;-1.930;2023-05-09T03:31:18;99798.57031;;;;
44734;BME280;30462;52.446;-1.930;2023-05-09T03:32:18;99794.21875;;;;
44734;BME280;30462;52.446;-1.930;2023-05-09T03:33:18;99793.6875;;;;
44734;BME280;30462;52.446;-1.930;2023-05-09T03:34:17;99794.66016;;;;
44734;BME280;30462;52.446;-1.930;2023-05-09T03:35:18;99792.28516;;;;
44734;BME280;30462;52.446;-1.930;2023-05-09T03:36:18;99794.62109;;;;
44734;BME280;30462;52.446;-1.930;2023-05-09T03:37:18;99798.87109;;;;
44734;BME280;30462;52.446;-1.930;2023-05-09T03:38:18;99794.05469;;;;
44734;BME280;30462;52.446;-1.930;2023-05-09T03:39:18;99796.03906;;;;
44734;BME280;30462;52.446;-1.930;2023-05-09T03:40:18;99794.54688;;;;
44734;BME280;30462;52.446;-1.930;2023-05-09T03:41:17;99796.51953;;;;
44734;BME280;30462;52.446;-1.930;2023-05-09T03:42:18;99796.98047;;;;
44734;BME280;30462;52.446;-1.930;2023-05-09T03:43:18;99798.94141;;;;
44734;BME280;30462;52.446;-1.930;2023-05-09T03:44:18;99799.60547;;;;
44734;BME280;30462;52.446;-1.930;2023-05-09T03:45:18;99796.95313;;;;
44734;BME280;30462;52.446;-1.930;2023-05-09T03:46:18;99798.4375;;;;
44734;BME280;30462;52.446;-1.930;2023-05-09T03:47:18;99794.98828;;;;
44734;BME280;30462;52.446;-1.930;2023-05-09T03:48:17;99797.33984;;;;
44734;BME280;30462;52.446;-1.930;2023-05-09T03:49:18;99797.28906;;;;
44734;BME280;30462;52.446;-1.930;2023-05-09T03:50:18;99795.21875;;;;
44734;BME280;30462;52.446;-1.930;2023-05-09T03:51:18;99792.06641;;;;
44734;BME280;30462;52.446;-1.930;2023-05-09T03:52:18;99793.15234;;;;
44734;BME280;30462;52.446;-1.930;2023-05-09T03:53:18;99792.40625;;;;
44734;BME280;30462;52.446;-1.930;2023-05-09T03:54:17;99795.19531;;;;
44734;BME280;30462;52.446;-1.930;2023-05-09T03:55:18;99789.59766;;;;
44734;BME280;30462;52.446;-1.930;2023-05-09T03:56:18;99786.14844;;;;
44734;BME280;30462;52.446;-1.930;2023-05-09T03:57:18;99790.80078;;;;
44734;BME280;30462;52.446;-1.930;2023-05-09T03:58:18;99790.63281;;;;
44734;BME280;30462;52.446;-1.930;2023-05-09T03:59:18;99790.14844;;;;
44734;BME280;30462;52.446;-1.930;2023-05-09T04:00:18;99789.80859;;;;
44734;BME280;30462;52.446;-1.930;2023-05-09T04:01:17;99784.90625;;;;
44734;BME280;30462;52.446;-1.930;2023-05-09T04:02:18;99782.90234;;;;
44734;BME280;30462;52.446;-1.930;2023-05-09T04:03:18;99785.33594;;;;
44734;BME280;30462;52.446;-1.930;2023-05-09T04:04:18;99779.19922;;;;
44734;BME280;30462;52.446;-1.930;2023-05-09T04:05:18;99781.35938;;;;
44734;BME280;30462;52.446;-1.930;2023-05-09T04:06:18;99780.39844;;;;
44734;BME280;30462;52.446;-1.930;2023-05-09T04:07:18;99776.12891;;;;
44734;BME280;30462;52.446;-1.930;2023-05-09T04:08:18;99776.19531;;;;
44734;BME280;30462;52.446;-1.930;2023-05-09T04:09:18;99776.94141;;;;
44734;BME280;30462;52.446;-1.930;2023-05-09T04:10:18;99774.07422;;;;
44734;BME280;30462;52.446;-1.930;2023-05-09T04:11:18;99773.60938;;;;
44734;BME280;30462;52.446;-1.930;2023-05-09T04:12:18;99775.12109;;;;
44734;BME280;30462;52.446;-1.930;2023-05-09T04:13:18;99772.99609;;;;
44734;BME280;30462;52.446;-1.930;2023-05-09T04:14:17;99773.59766;;;;
44734;BME280;30462;52.446;-1.930;2023-05-09T04:15:18;99771.07031;;;;
44734;BME280;30462;52.446;-1.930;2023-05-09T04:16:18;99766.85938;;;;
44734;BME280;30462;52.446;-1.930;2023-05-09T04:17:18;99766.13281;;;;
44734;BME280;30462;52.446;-1.930;2023-05-09T04:18:17;99767.53906;;;;
44734;BME280;30462;52.446;-1.930;2023-05-09T04:19:18;99765.47266;;;;
44734;BME280;30462;52.446;-1.930;2023-05-09T04:20:18;99765.54688;;;;
44734;BME280;30462;52.446;-1.930;2023-05-09T04:21:18;99763.54688;;;;
44734;BME280;30462;52.446;-1.930;2023-05-09T04:22:18;99762.17969;;;;
44734;BME280;30462;52.446;-1.930;2023-05-09T04:23:18;99764.90625;;;;
44734;BME280;30462;52.446;-1.930;2023-05-09T04:24:17;99762.10938;;;;
44734;BME280;30462;52.446;-1.930;2023-05-09T04:25:18;99762.82813;;;;
44734;BME280;30462;52.446;-1.930;2023-05-09T04:26:18;99764.91406;;;;
44734;BME280;30462;52.446;-1.930;2023-05-09T04:27:18;99762.21484;;;;
44734;BME280;30462;52.446;-1.930;2023-05-09T04:28:18;99758.875;;;;
44734;BME280;30462;52.446;-1.930;2023-05-09T04:29:17;99760.45703;;;;
44734;BME280;30462;52.446;-1.930;2023-05-09T04:30:17;99759.52734;;;;
44734;BME280;30462;52.446;-1.930;2023-05-09T04:31:18;99757.9375;;;;
44734;BME280;30462;52.446;-1.930;2023-05-09T04:32:18;99757.50391;;;;
44734;BME280;30462;52.446;-1.930;2023-05-09T04:33:18;99756.57031;;;;
44734;BME280;30462;52.446;-1.930;2023-05-09T04:34:18;99754.90234;;;;
44734;BME280;30462;52.446;-1.930;2023-05-09T04:35:18;99753.09766;;;;
44734;BME280;30462;52.446;-1.930;2023-05-09T04:36:17;99754.46875;;;;
44734;BME280;30462;52.446;-1.930;2023-05-09T04:37:18;99756.57031;;;;
44734;BME280;30462;52.446;-1.930;2023-05-09T04:38:18;99754.03516;;;;
44734;BME280;30462;52.446;-1.930;2023-05-09T04:39:19;99757.91406;;;;
44734;BME280;30462;52.446;-1.930;2023-05-09T04:40:17;99758.89063;;;;
44734;BME280;30462;52.446;-1.930;2023-05-09T04:41:18;99758.30078;;;;
44734;BME280;30462;52.446;-1.930;2023-05-09T04:42:18;99759.91406;;;;
44734;BME280;30462;52.446;-1.930;2023-05-09T04:43:18;99757.14453;;;;
44734;BME280;30462;52.446;-1.930;2023-05-09T04:44:17;99757.875;;;;
44734;BME280;30462;52.446;-1.930;2023-05-09T04:45:17;99759.42969;;;;
44734;BME280;30462;52.446;-1.930;2023-05-09T04:46:18;99758.27734;;;;
44734;BME280;30462;52.446;-1.930;2023-05-09T04:47:18;99756.97266;;;;
44734;BME280;30462;52.446;-1.930;2023-05-09T04:48:18;99757.57422;;;;
44734;BME280;30462;52.446;-1.930;2023-05-09T04:49:18;99754.01953;;;;
44734;BME280;30462;52.446;-1.930;2023-05-09T04:50:18;99756.42969;;;;
44734;BME280;30462;52.446;-1.930;2023-05-09T04:51:18;99753.91016;;;;
44734;BME280;30462;52.446;-1.930;2023-05-09T04:52:18;99753.75;;;;
44734;BME280;30462;52.446;-1.930;2023-05-09T04:53:18;99750.55078;;;;
44734;BME280;30462;52.446;-1.930;2023-05-09T04:54:18;99754.51172;;;;
44734;BME280;30462;52.446;-1.930;2023-05-09T04:55:18;99754.6875;;;;
44734;BME280;30462;52.446;-1.930;2023-05-09T04:56:18;99754.97266;;;;
44734;BME280;30462;52.446;-1.930;2023-05-09T04:57:17;99753.92969;;;;
44734;BME280;30462;52.446;-1.930;2023-05-09T04:58:18;99751.02344;;;;
44734;BME280;30462;52.446;-1.930;2023-05-09T04:59:17;99752.27344;;;;
44734;BME280;30462;52.446;-1.930;2023-05-09T05:00:18;99754.64844;;;;
44734;BME280;30462;52.446;-1.930;2023-05-09T05:01:18;99754.29688;;;;
44734;BME280;30462;52.446;-1.930;2023-05-09T05:02:18;99752.60156;;;;
44734;BME280;30462;52.446;-1.930;2023-05-09T05:03:18;99752.22656;;;;
44734;BME280;30462;52.446;-1.930;2023-05-09T05:04:17;99753.28906;;;;
44734;BME280;30462;52.446;-1.930;2023-05-09T05:05:18;99750.21094;;;;
44734;BME280;30462;52.446;-1.930;2023-05-09T05:06:18;99749.04297;;;;
44734;BME280;30462;52.446;-1.930;2023-05-09T05:07:18;99750.34375;;;;
44734;BME280;30462;52.446;-1.930;2023-05-09T05:08:18;99746.23047;;;;
44734;BME280;30462;52.446;-1.930;2023-05-09T05:09:17;99749.64453;;;;
44734;BME280;30462;52.446;-1.930;2023-05-09T05:10:18;99749.03906;;;;
44734;BME280;30462;52.446;-1.930;2023-05-09T05:11:18;99747.18359;;;;
44734;BME280;30462;52.446;-1.930;2023-05-09T05:12:18;99744.12109;;;;
44734;BME280;30462;52.446;-1.930;2023-05-09T05:13:17;99744.55078;;;;
44734;BME280;30462;52.446;-1.930;2023-05-09T05:14:19;99741.81641;;;;
44734;BME280;30462;52.446;-1.930;2023-05-09T05:15:17;99742.25391;;;;
44734;BME280;30462;52.446;-1.930;2023-05-09T05:16:18;99741.25781;;;;
44734;BME280;30462;52.446;-1.930;2023-05-09T05:17:18;99739.77734;;;;
44734;BME280;30462;52.446;-1.930;2023-05-09T05:18:18;99740.91406;;;;
44734;BME280;30462;52.446;-1.930;2023-05-09T05:19:18;99742.46875;;;;
44734;BME280;30462;52.446;-1.930;2023-05-09T05:20:18;99741.70313;;;;
44734;BME280;30462;52.446;-1.930;2023-05-09T05:21:17;99742.28125;;;;
44734;BME280;30462;52.446;-1.930;2023-05-09T05:22:18;99740.15234;;;;
44734;BME280;30462;52.446;-1.930;2023-05-09T05:23:18;99737.73438;;;;
44734;BME280;30462;52.446;-1.930;2023-05-09T05:24:18;99739.04297;;;;
44734;BME280;30462;52.446;-1.930;2023-05-09T05:25:17;99739.70703;;;;
44734;BME280;30462;52.446;-1.930;2023-05-09T05:26:18;99741.92188;;;;
44734;BME280;30462;52.446;-1.930;2023-05-09T05:27:18;99738.85156;;;;
44734;BME280;30462;52.446;-1.930;2023-05-09T05:28:18;99740.73828;;;;
44734;BME280;30462;52.446;-1.930;2023-05-09T05:29:18;99739.87109;;;;
44734;BME280;30462;52.446;-1.930;2023-05-09T05:30:18;99742.41016;;;;
44734;BME280;30462;52.446;-1.930;2023-05-09T05:31:18;99741.18359;;;;
44734;BME280;30462;52.446;-1.930;2023-05-09T05:32:18;99739.87891;;;;
44734;BME280;30462;52.446;-1.930;2023-05-09T05:33:18;99738.33203;;;;
44734;BME280;30462;52.446;-1.930;2023-05-09T05:34:18;99741.30469;;;;
44734;BME280;30462;52.446;-1.930;2023-05-09T05:35:18;99742.34375;;;;
44734;BME280;30462;52.446;-1.930;2023-05-09T05:36:18;99741.61719;;;;
44734;BME280;30462;52.446;-1.930;2023-05-09T05:37:18;99741.67578;;;;
44734;BME280;30462;52.446;-1.930;2023-05-09T05:38:18;99742.77344;;;;
44734;BME280;30462;52.446;-1.930;2023-05-09T05:39:17;99743.82422;;;;
44734;BME280;30462;52.446;-1.930;2023-05-09T05:40:18;99742.42578;;;;
44734;BME280;30462;52.446;-1.930;2023-05-09T05:41:18;99743.25781;;;;
44734;BME280;30462;52.446;-1.930;2023-05-09T05:42:18;99745.50781;;;;
44734;BME280;30462;52.446;-1.930;2023-05-09T05:43:18;99745.78516;;;;
44734;BME280;30462;52.446;-1.930;2023-05-09T05:44:17;99746.23438;;;;
44734;BME280;30462;52.446;-1.930;2023-05-09T05:45:18;99744.80469;;;;
44734;BME280;30462;52.446;-1.930;2023-05-09T05:46:18;99746.83984;;;;
44734;BME280;30462;52.446;-1.930;2023-05-09T05:47:18;99748.93359;;;;
44734;BME280;30462;52.446;-1.930;2023-05-09T05:48:17;99750.71875;;;;